Time;durP1;ratioP1;P1;durP2;ratioP2;P2;SDS_P1;SDS_P2;PMS_P1;PMS_P2;Temp;Humidity;BMP_temperature;BMP_pressure;BME280_temperature;BME280_humidity;BME280_pressure;Samples;Min_cycle;Max_cycle;Signal;HPM_P1;HPM_P2
2021/11/06 00:00:41;;;;;;;7.47;3.75;;;;;;;26.73;18.41;99081.66;5073982;28;20478;-90
2021/11/06 00:03:07;;;;;;;5.90;4.10;;;;;;;26.63;18.51;99079.00;5074879;28;20020;-89
2021/11/06 00:05:34;;;;;;;6.15;3.88;;;;;;;26.22;19.04;99081.28;5073590;28;20036;-89
2021/11/06 00:08:00;;;;;;;5.18;3.53;;;;;;;25.60;19.97;99082.47;5075705;28;20029;-89
2021/11/06 00:10:27;;;;;;;4.53;2.97;;;;;;;25.55;19.90;99077.34;5077344;28;20028;-89
2021/11/06 00:12:53;;;;;;;5.15;3.10;;;;;;;25.59;19.89;99083.72;5081135;28;20020;-90
2021/11/06 00:15:20;;;;;;;4.05;2.97;;;;;;;25.51;19.91;99084.22;5062997;28;20104;-90
2021/11/06 00:17:46;;;;;;;4.72;3.08;;;;;;;25.49;19.82;99084.63;5063038;28;20044;-89
2021/11/06 00:20:14;;;;;;;3.63;2.67;;;;;;;25.73;19.26;99082.75;5074198;28;20074;-90
2021/11/06 00:22:41;;;;;;;5.65;3.75;;;;;;;25.73;19.29;99075.09;5076374;28;20444;-89
2021/11/06 00:25:09;;;;;;;2.20;1.98;;;;;;;25.54;19.62;99092.59;5068841;28;20056;-90
2021/11/06 00:27:36;;;;;;;3.00;2.13;;;;;;;25.62;19.20;99087.72;5073675;28;20028;-89
2021/11/06 00:30:06;;;;;;;5.93;2.67;;;;;;;25.37;19.24;99083.13;5086224;28;20024;-89
2021/11/06 00:32:33;;;;;;;4.13;2.42;;;;;;;25.12;19.78;99096.66;5089068;28;20033;-89
2021/11/06 00:34:59;;;;;;;3.63;2.17;;;;;;;25.00;19.92;99093.56;5079130;28;20520;-89
2021/11/06 00:37:26;;;;;;;3.33;2.03;;;;;;;24.53;20.43;99104.38;5083209;28;20138;-89
2021/11/06 00:39:53;;;;;;;2.78;1.85;;;;;;;23.51;21.36;99101.28;5075295;28;20090;-91
2021/11/06 00:42:19;;;;;;;4.70;2.97;;;;;;;23.36;21.79;99104.13;5073690;28;20083;-90
2021/11/06 00:44:45;;;;;;;5.38;2.95;;;;;;;22.54;23.08;99108.16;5078303;28;20058;-90
2021/11/06 00:47:11;;;;;;;3.47;2.70;;;;;;;22.93;22.62;99113.81;5072534;28;20575;-90
2021/11/06 00:49:38;;;;;;;5.68;2.70;;;;;;;22.44;22.88;99110.97;5079204;28;20066;-90
2021/11/06 00:52:06;;;;;;;3.70;2.60;;;;;;;22.20;23.54;99112.53;5057068;28;20028;-90
2021/11/06 00:54:32;;;;;;;5.43;2.92;;;;;;;22.60;23.30;99119.78;5067396;28;20028;-90
2021/11/06 00:56:58;;;;;;;5.40;2.90;;;;;;;23.13;22.50;99122.56;5054631;28;20036;-90
2021/11/06 00:59:24;;;;;;;5.03;3.13;;;;;;;22.65;23.16;99120.22;5069373;28;20064;-90
2021/11/06 01:01:51;;;;;;;4.97;3.53;;;;;;;22.97;23.10;99133.41;5075903;28;20086;-90
2021/11/06 01:04:18;;;;;;;7.75;4.18;;;;;;;23.21;22.83;99133.38;5073741;28;20063;-90
2021/11/06 01:06:45;;;;;;;6.25;3.92;;;;;;;23.39;22.61;99130.56;5076896;28;20398;-89
2021/11/06 01:09:11;;;;;;;3.67;2.95;;;;;;;23.99;21.71;99122.72;5076602;28;20033;-89
2021/11/06 01:11:38;;;;;;;6.95;3.30;;;;;;;24.46;21.27;99121.25;5079680;28;20059;-89
2021/11/06 01:14:04;;;;;;;3.90;3.08;;;;;;;24.28;21.13;99125.41;5083290;28;20032;-89
2021/11/06 01:16:30;;;;;;;5.70;3.25;;;;;;;24.44;20.78;99125.69;5074862;28;20036;-88
2021/11/06 01:18:57;;;;;;;5.25;3.30;;;;;;;25.01;20.13;99129.69;5073740;28;20109;-89
2021/11/06 01:21:23;;;;;;;4.80;3.25;;;;;;;25.36;19.49;99123.72;5079875;28;20575;-88
2021/11/06 01:23:49;;;;;;;3.72;2.72;;;;;;;25.56;19.50;99140.00;5072055;28;20116;-88
2021/11/06 01:26:15;;;;;;;3.75;2.58;;;;;;;25.51;19.40;99137.66;5071569;28;20029;-89
2021/11/06 01:28:42;;;;;;;2.75;2.33;;;;;;;25.51;19.61;99137.66;5064456;28;20036;-89
2021/11/06 01:31:08;;;;;;;6.22;3.80;;;;;;;25.33;19.79;99127.38;5067527;28;20072;-89
2021/11/06 01:33:34;;;;;;;5.03;3.35;;;;;;;25.19;19.98;99129.50;5074568;28;20037;-89
2021/11/06 01:36:00;;;;;;;6.18;3.95;;;;;;;25.13;20.09;99125.56;5073500;28;20039;-89
2021/11/06 01:38:26;;;;;;;4.80;3.45;;;;;;;25.21;19.80;99124.25;5072131;28;20033;-88
2021/11/06 01:40:52;;;;;;;4.30;3.55;;;;;;;25.57;19.62;99124.72;5076551;28;20028;-89
2021/11/06 01:43:18;;;;;;;4.70;2.70;;;;;;;25.86;19.14;99120.34;5078372;28;20036;-89
2021/11/06 01:45:44;;;;;;;4.30;2.90;;;;;;;25.67;19.47;99130.22;5055669;28;20029;-89
2021/11/06 01:48:11;;;;;;;4.38;2.63;;;;;;;25.63;19.52;99125.84;5066979;28;20051;-89
2021/11/06 01:50:37;;;;;;;3.90;2.63;;;;;;;25.71;19.35;99121.75;5085176;28;20508;-89
2021/11/06 01:53:03;;;;;;;3.78;2.42;;;;;;;25.74;19.20;99112.47;5073933;28;20029;-90
2021/11/06 01:55:29;;;;;;;3.90;2.47;;;;;;;25.77;19.20;99122.88;5049646;28;20024;-90
2021/11/06 01:57:57;;;;;;;3.28;2.33;;;;;;;25.78;19.30;99116.03;5070704;28;20043;-90
2021/11/06 02:00:26;;;;;;;5.22;2.67;;;;;;;25.70;19.26;99120.94;5069308;28;20029;-89
2021/11/06 02:02:52;;;;;;;4.10;2.67;;;;;;;25.71;19.37;99118.94;5071952;28;20030;-90
2021/11/06 02:05:19;;;;;;;3.60;2.75;;;;;;;25.80;19.22;99122.03;5069526;28;20390;-90
2021/11/06 02:07:45;;;;;;;3.33;2.60;;;;;;;25.83;19.12;99126.84;5056080;28;20028;-90
2021/11/06 02:10:13;;;;;;;4.07;2.80;;;;;;;25.73;19.19;99122.94;5055263;28;20033;-90
2021/11/06 02:12:41;;;;;;;4.70;3.15;;;;;;;25.80;19.17;99122.84;5061366;28;20040;-90
2021/11/06 02:15:10;;;;;;;4.30;2.63;;;;;;;25.98;19.01;99119.78;5084032;28;20032;-90
2021/11/06 02:17:37;;;;;;;4.10;3.20;;;;;;;25.92;19.11;99121.47;5071972;28;20041;-90
2021/11/06 02:20:05;;;;;;;3.78;2.78;;;;;;;25.45;19.42;99122.44;5060135;28;20037;-90
2021/11/06 02:22:33;;;;;;;3.80;2.78;;;;;;;25.18;19.84;99122.31;5062360;28;20037;-90
2021/11/06 02:24:59;;;;;;;4.30;2.58;;;;;;;25.32;19.80;99131.38;5070602;28;20119;-90
2021/11/06 02:27:25;;;;;;;3.67;2.95;;;;;;;25.56;19.48;99125.94;5069995;28;20764;-91
2021/11/06 02:29:51;;;;;;;4.63;3.08;;;;;;;25.79;19.08;99117.66;5069534;28;20035;-90
2021/11/06 02:32:17;;;;;;;4.45;3.15;;;;;;;25.94;18.80;99124.66;5069565;28;20024;-89
2021/11/06 02:34:43;;;;;;;3.70;2.75;;;;;;;25.64;19.00;99124.66;5072387;28;20037;-90
2021/11/06 02:37:10;;;;;;;4.15;2.58;;;;;;;25.35;19.46;99129.75;5071195;28;20037;-90
2021/11/06 02:39:36;;;;;;;4.25;2.65;;;;;;;25.31;19.26;99127.00;5066854;28;20120;-90
2021/11/06 02:42:06;;;;;;;5.68;2.83;;;;;;;25.35;19.17;99122.13;5050048;28;20390;-91
2021/11/06 02:44:33;;;;;;;4.37;3.17;;;;;;;25.41;19.34;99125.28;5071436;28;20025;-90
2021/11/06 02:47:00;;;;;;;4.40;3.10;;;;;;;25.49;19.06;99123.19;5070687;28;20029;-91
2021/11/06 02:49:27;;;;;;;4.20;2.78;;;;;;;25.64;18.93;99121.84;5070741;28;20888;-91
2021/11/06 02:51:54;;;;;;;4.88;2.78;;;;;;;25.67;19.51;99118.19;5070286;28;20062;-90
2021/11/06 02:54:20;;;;;;;3.45;2.67;;;;;;;25.64;19.39;99122.63;5056905;28;20035;-90
2021/11/06 02:56:46;;;;;;;3.00;2.63;;;;;;;25.71;18.97;99130.19;5071030;28;20440;-90
2021/11/06 02:59:12;;;;;;;3.03;2.58;;;;;;;25.64;19.29;99124.66;5064804;28;20037;-90
2021/11/06 03:01:38;;;;;;;2.72;2.15;;;;;;;25.74;19.19;99124.50;5077134;28;20036;-90
2021/11/06 03:04:11;;;;;;;3.63;2.53;;;;;;;25.70;19.21;99125.75;5058744;28;20127;-91
2021/11/06 03:06:37;;;;;;;4.40;2.50;;;;;;;25.47;19.43;99137.69;5075798;28;20856;-91
2021/11/06 03:09:05;;;;;;;4.55;2.58;;;;;;;25.49;19.21;99143.69;5064971;28;20037;-91
2021/11/06 03:11:36;;;;;;;5.05;2.50;;;;;;;25.63;19.17;99140.72;5079968;28;20107;-91
2021/11/06 03:14:04;;;;;;;4.18;2.33;;;;;;;25.64;19.10;99147.94;5080802;28;20024;-91
2021/11/06 03:16:30;;;;;;;4.05;2.72;;;;;;;25.68;19.15;99145.09;5075786;28;20080;-91
2021/11/06 03:18:57;;;;;;;4.60;3.10;;;;;;;25.33;19.60;99154.66;5075700;28;20043;-91
2021/11/06 03:21:27;;;;;;;3.60;3.05;;;;;;;25.23;19.52;99155.56;5073879;28;20045;-90
2021/11/06 03:23:53;;;;;;;3.83;2.80;;;;;;;25.28;19.73;99153.13;5070342;28;20028;-91
2021/11/06 03:26:19;;;;;;;4.70;2.95;;;;;;;25.55;19.39;99149.66;5069696;28;20090;-90
2021/11/06 03:28:45;;;;;;;4.18;3.05;;;;;;;25.64;19.08;99156.38;5063430;28;20033;-90
2021/11/06 03:31:13;;;;;;;4.22;2.70;;;;;;;25.28;19.44;99150.31;5076014;28;20046;-90
2021/11/06 03:33:39;;;;;;;4.20;2.40;;;;;;;25.22;19.42;99163.22;5062641;28;20037;-90
2021/11/06 03:36:05;;;;;;;2.95;2.53;;;;;;;24.97;19.69;99159.81;5057256;28;20078;-90
2021/11/06 03:38:32;;;;;;;4.25;2.55;;;;;;;25.03;19.50;99158.16;5081079;28;20036;-90
2021/11/06 03:40:58;;;;;;;4.18;2.28;;;;;;;25.13;19.51;99157.28;5080163;28;20086;-90
2021/11/06 03:43:24;;;;;;;4.07;2.47;;;;;;;25.24;19.45;99155.16;5070435;28;20068;-90
2021/11/06 03:45:50;;;;;;;5.53;3.30;;;;;;;25.07;19.57;99164.56;5077825;28;20047;-90
2021/11/06 03:48:16;;;;;;;5.53;2.58;;;;;;;24.74;19.69;99157.56;5057767;28;20032;-90
2021/11/06 03:50:43;;;;;;;2.20;1.90;;;;;;;24.49;20.03;99164.56;5069664;28;20442;-90
2021/11/06 03:53:09;;;;;;;3.08;2.05;;;;;;;24.53;19.94;99168.13;5059338;28;20520;-90
2021/11/06 03:55:35;;;;;;;6.43;2.53;;;;;;;24.33;19.90;99158.66;5075295;28;20045;-90
2021/11/06 03:58:01;;;;;;;5.07;2.67;;;;;;;24.26;20.14;99167.09;5063504;28;20036;-90
2021/11/06 04:00:27;;;;;;;4.40;3.03;;;;;;;24.29;19.94;99169.09;5087269;28;20040;-90
2021/11/06 04:02:53;;;;;;;3.05;2.03;;;;;;;24.20;20.34;99172.34;5074271;28;20050;-90
2021/11/06 04:05:19;;;;;;;3.58;2.67;;;;;;;23.67;20.52;99175.34;5070891;28;20379;-90
2021/11/06 04:07:45;;;;;;;6.22;3.35;;;;;;;23.66;20.73;99168.16;5068791;28;20029;-90
2021/11/06 04:10:12;;;;;;;4.07;2.90;;;;;;;23.54;20.75;99184.59;5073407;28;20118;-90
2021/11/06 04:12:39;;;;;;;5.18;2.83;;;;;;;23.65;20.64;99171.34;5086775;28;20043;-90
2021/11/06 04:15:08;;;;;;;2.92;2.45;;;;;;;23.92;19.99;99173.25;5075786;28;20035;-89
2021/11/06 04:17:34;;;;;;;3.08;2.53;;;;;;;24.27;19.59;99175.09;5080621;28;20050;-89
2021/11/06 04:20:00;;;;;;;5.43;2.80;;;;;;;24.35;19.23;99173.88;5075398;28;20060;-90
2021/11/06 04:22:27;;;;;;;4.70;3.28;;;;;;;23.47;20.27;99179.81;5079896;28;20021;-89
2021/11/06 04:24:53;;;;;;;6.18;3.95;;;;;;;23.62;19.92;99180.56;5080206;28;20043;-90
2021/11/06 04:27:19;;;;;;;4.50;2.28;;;;;;;23.69;20.18;99186.13;5072954;28;20024;-90
2021/11/06 04:29:45;;;;;;;2.90;2.53;;;;;;;23.64;19.99;99186.56;5063758;28;20033;-90
2021/11/06 04:32:11;;;;;;;4.85;2.97;;;;;;;23.57;20.39;99187.38;5070105;28;20103;-90
2021/11/06 04:34:37;;;;;;;3.42;2.40;;;;;;;23.49;20.10;99185.81;5079671;28;20029;-90
2021/11/06 04:37:03;;;;;;;4.47;3.00;;;;;;;23.52;20.12;99193.41;5069150;28;20371;-90
2021/11/06 04:39:29;;;;;;;4.03;3.10;;;;;;;23.72;20.27;99193.75;5074655;28;20025;-90
2021/11/06 04:41:55;;;;;;;5.53;3.28;;;;;;;23.68;19.92;99196.59;5065400;28;20033;-90
2021/11/06 04:44:22;;;;;;;3.45;2.20;;;;;;;23.53;19.95;99200.59;5069593;28;20036;-90
2021/11/06 04:46:48;;;;;;;4.65;2.35;;;;;;;23.54;20.12;99201.41;5067443;28;20044;-89
2021/11/06 04:49:14;;;;;;;3.88;2.05;;;;;;;23.57;20.04;99200.63;5062520;28;20044;-90
2021/11/06 04:51:40;;;;;;;2.85;2.03;;;;;;;23.29;20.43;99202.19;5061128;28;20039;-90
2021/11/06 04:54:06;;;;;;;2.20;1.60;;;;;;;23.16;20.29;99209.44;5061437;28;20542;-90
2021/11/06 04:56:32;;;;;;;2.10;1.65;;;;;;;23.06;20.34;99215.00;5063244;28;20048;-89
2021/11/06 04:58:58;;;;;;;1.83;1.65;;;;;;;23.11;20.61;99209.03;5059972;28;20028;-89
2021/11/06 05:01:25;;;;;;;2.85;2.08;;;;;;;23.41;20.06;99209.44;5061042;28;20111;-89
2021/11/06 05:03:51;;;;;;;5.20;2.17;;;;;;;23.64;19.91;99206.19;5060388;28;20047;-89
2021/11/06 05:06:17;;;;;;;2.22;1.95;;;;;;;23.73;19.49;99213.00;5059573;28;20044;-89
2021/11/06 05:08:43;;;;;;;2.38;2.05;;;;;;;23.65;19.47;99213.41;5061334;28;20092;-89
2021/11/06 05:11:09;;;;;;;1.80;1.40;;;;;;;23.89;19.65;99221.75;5069228;28;20519;-89
2021/11/06 05:13:35;;;;;;;1.52;1.42;;;;;;;23.92;19.33;99225.75;5062838;28;20032;-89
2021/11/06 05:16:02;;;;;;;2.15;1.60;;;;;;;23.95;19.89;99227.72;5063512;28;20040;-88
2021/11/06 05:18:28;;;;;;;2.17;1.65;;;;;;;24.07;19.54;99224.53;5053681;28;20055;-88
2021/11/06 05:20:54;;;;;;;3.15;2.35;;;;;;;24.20;19.56;99225.66;5067020;28;20053;-88
2021/11/06 05:23:21;;;;;;;3.10;2.08;;;;;;;24.25;19.63;99218.84;5064343;28;20033;-87
2021/11/06 05:25:47;;;;;;;3.75;1.77;;;;;;;24.36;19.63;99231.63;5064704;28;20047;-87
2021/11/06 05:28:14;;;;;;;2.78;1.95;;;;;;;24.64;19.40;99225.84;5074029;28;20044;-86
2021/11/06 05:30:42;;;;;;;1.92;1.83;;;;;;;24.70;19.40;99227.00;5068006;28;20040;-87
2021/11/06 05:33:08;;;;;;;2.67;2.17;;;;;;;24.80;19.15;99227.38;5067679;28;20021;-86
2021/11/06 05:35:35;;;;;;;4.05;2.47;;;;;;;24.90;19.32;99227.28;5071933;28;20029;-87
2021/11/06 05:38:03;;;;;;;2.40;1.90;;;;;;;25.00;19.34;99226.44;5066119;28;20033;-86
2021/11/06 05:40:30;;;;;;;3.45;1.88;;;;;;;24.33;19.95;99235.25;5066306;28;20490;-86
2021/11/06 05:42:56;;;;;;;3.97;2.03;;;;;;;24.20;20.09;99247.34;5070282;28;20032;-87
2021/11/06 05:45:22;;;;;;;3.70;2.30;;;;;;;24.36;19.88;99244.84;5067990;28;20142;-86
2021/11/06 05:47:48;;;;;;;3.05;2.17;;;;;;;24.53;19.83;99249.56;5068861;28;20028;-87
2021/11/06 05:50:16;;;;;;;2.92;2.45;;;;;;;24.89;19.86;99244.56;5077687;28;20036;-86
2021/11/06 05:52:43;;;;;;;2.38;1.85;;;;;;;25.13;19.73;99240.81;5072885;28;20056;-87
2021/11/06 05:55:13;;;;;;;3.08;2.53;;;;;;;25.38;19.23;99247.00;5071156;28;20040;-87
2021/11/06 05:57:40;;;;;;;2.92;2.05;;;;;;;25.35;19.56;99245.00;5069105;28;20107;-89
2021/11/06 06:00:09;;;;;;;2.20;1.63;;;;;;;25.13;19.57;99247.22;5059940;28;20474;-87
2021/11/06 06:02:36;;;;;;;1.92;1.73;;;;;;;25.13;19.66;99258.47;5077793;28;20115;-87
2021/11/06 06:05:03;;;;;;;6.28;2.13;;;;;;;25.32;19.58;99260.69;5068105;28;20060;-88
2021/11/06 06:07:29;;;;;;;2.05;1.63;;;;;;;25.46;19.56;99259.84;5069688;28;20036;-88
2021/11/06 06:09:55;;;;;;;2.92;1.88;;;;;;;25.48;19.35;99268.66;5069539;28;20486;-87
2021/11/06 06:12:21;;;;;;;3.65;2.17;;;;;;;25.67;19.22;99267.28;5069732;28;20028;-87
2021/11/06 06:14:47;;;;;;;3.65;2.17;;;;;;;25.66;19.43;99268.47;5074560;28;20612;-86
2021/11/06 06:17:14;;;;;;;2.28;2.00;;;;;;;25.56;19.53;99275.78;5069142;28;20028;-86
2021/11/06 06:19:40;;;;;;;2.25;1.50;;;;;;;25.59;19.57;99276.97;5062223;28;20103;-87
2021/11/06 06:22:06;;;;;;;2.28;1.67;;;;;;;25.40;19.88;99276.31;5082939;28;20033;-85
2021/11/06 06:24:32;;;;;;;2.45;1.80;;;;;;;25.48;19.93;99284.72;5071096;28;20486;-86
2021/11/06 06:26:58;;;;;;;2.35;2.15;;;;;;;25.60;19.65;99284.22;5065503;28;20039;-86
2021/11/06 06:29:24;;;;;;;3.35;2.13;;;;;;;25.63;19.57;99286.97;5062839;28;20024;-85
2021/11/06 06:31:50;;;;;;;2.80;1.70;;;;;;;25.30;20.25;99288.44;5068336;28;20041;-86
2021/11/06 06:34:16;;;;;;;1.35;1.17;;;;;;;25.24;20.41;99284.47;5071278;28;20029;-87
2021/11/06 06:36:42;;;;;;;3.33;1.83;;;;;;;25.49;20.05;99289.91;5076475;28;20028;-87
2021/11/06 06:39:08;;;;;;;3.13;1.67;;;;;;;25.70;20.08;99284.09;5059182;28;20465;-87
2021/11/06 06:41:35;;;;;;;2.65;2.00;;;;;;;25.97;19.86;99289.88;5083127;28;20040;-87
2021/11/06 06:44:01;;;;;;;2.65;2.22;;;;;;;26.07;19.33;99284.13;5076633;28;20497;-86
2021/11/06 06:46:27;;;;;;;3.00;2.65;;;;;;;26.15;19.32;99290.50;5086281;28;20038;-86
2021/11/06 06:48:53;;;;;;;3.80;3.20;;;;;;;25.93;19.33;99287.09;5079916;28;20543;-87
2021/11/06 06:51:19;;;;;;;3.22;2.63;;;;;;;25.62;19.42;99287.41;5077852;28;20052;-87
2021/11/06 06:53:46;;;;;;;3.17;2.15;;;;;;;25.68;20.01;99288.53;5084625;28;20032;-87
2021/11/06 06:56:12;;;;;;;2.83;2.13;;;;;;;25.62;19.61;99287.41;5080922;28;20028;-87
2021/11/06 06:58:38;;;;;;;2.63;2.30;;;;;;;25.61;19.72;99299.84;5077436;28;20440;-88
2021/11/06 07:01:05;;;;;;;3.78;2.67;;;;;;;25.61;19.76;99294.22;5079273;28;20029;-87
2021/11/06 07:03:31;;;;;;;3.53;2.58;;;;;;;25.46;20.00;99298.41;5074419;28;20047;-88
2021/11/06 07:05:57;;;;;;;2.92;2.60;;;;;;;25.37;20.29;99296.81;5078135;28;20040;-87
2021/11/06 07:08:23;;;;;;;2.58;2.33;;;;;;;25.64;19.63;99304.66;5069111;28;20509;-87
2021/11/06 07:10:49;;;;;;;3.15;2.58;;;;;;;25.72;19.78;99306.22;5077111;28;20370;-87
2021/11/06 07:13:20;;;;;;;3.13;2.42;;;;;;;26.06;19.70;99315.50;5074303;28;20029;-87
2021/11/06 07:15:47;;;;;;;2.67;2.15;;;;;;;26.47;19.50;99321.91;5074528;28;20420;-85
2021/11/06 07:18:13;;;;;;;1.73;1.40;;;;;;;26.83;19.12;99321.50;5073507;28;20098;-87
2021/11/06 07:20:40;;;;;;;3.10;2.00;;;;;;;26.91;18.76;99314.53;5073280;28;20094;-87
2021/11/06 07:23:06;;;;;;;2.53;2.08;;;;;;;26.91;18.94;99314.53;5074758;28;20032;-87
2021/11/06 07:25:33;;;;;;;2.75;2.17;;;;;;;27.08;19.14;99302.19;5071730;28;20085;-87
2021/11/06 07:27:59;;;;;;;4.22;2.67;;;;;;;27.32;18.55;99317.94;5073966;28;20481;-87
2021/11/06 07:30:25;;;;;;;3.40;2.17;;;;;;;27.17;19.02;99313.75;5076692;28;20580;-87
2021/11/06 07:32:51;;;;;;;2.25;2.05;;;;;;;27.07;18.97;99317.53;5079790;28;20032;-87
2021/11/06 07:35:18;;;;;;;2.83;2.00;;;;;;;27.20;19.11;99310.06;5077639;28;20509;-87
2021/11/06 07:37:45;;;;;;;3.95;2.33;;;;;;;27.24;19.10;99322.09;5079932;28;20025;-87
2021/11/06 07:40:12;;;;;;;3.17;2.22;;;;;;;27.24;18.85;99317.25;5073655;28;20412;-87
2021/11/06 07:42:40;;;;;;;3.17;2.20;;;;;;;26.92;19.23;99316.13;5056264;28;20549;-87
2021/11/06 07:45:09;;;;;;;2.47;1.88;;;;;;;26.67;19.67;99322.88;5059680;28;20033;-85
2021/11/06 07:47:35;;;;;;;2.03;1.80;;;;;;;26.56;19.31;99322.19;5066614;28;20047;-86
2021/11/06 07:50:02;;;;;;;2.53;1.92;;;;;;;26.34;19.30;99317.25;5055204;28;20041;-87
2021/11/06 07:52:28;;;;;;;2.25;1.70;;;;;;;26.31;19.98;99327.31;5061769;28;20031;-87
2021/11/06 07:54:54;;;;;;;2.72;1.85;;;;;;;26.38;19.71;99335.69;5090553;28;20112;-87
2021/11/06 07:57:21;;;;;;;2.03;1.60;;;;;;;26.39;19.65;99328.84;5071988;28;20044;-86
2021/11/06 07:59:47;;;;;;;2.53;1.58;;;;;;;26.46;19.71;99337.22;5072491;28;20048;-86
2021/11/06 08:02:13;;;;;;;1.50;1.13;;;;;;;26.70;19.56;99338.13;5074958;28;20037;-87
2021/11/06 08:04:39;;;;;;;1.70;1.10;;;;;;;26.82;19.07;99337.59;5077119;28;20108;-87
2021/11/06 08:07:05;;;;;;;4.30;1.30;;;;;;;26.77;19.43;99338.06;5068505;28;20039;-86
2021/11/06 08:09:31;;;;;;;3.25;1.63;;;;;;;26.92;18.94;99345.13;5081778;28;20502;-86
2021/11/06 08:11:58;;;;;;;2.17;1.52;;;;;;;25.99;19.89;99335.28;5065460;28;20056;-86
2021/11/06 08:14:24;;;;;;;2.17;1.42;;;;;;;26.13;19.52;99340.81;5072471;28;20028;-86
2021/11/06 08:16:55;;;;;;;1.77;1.35;;;;;;;26.23;19.28;99334.28;5064202;28;20044;-88
2021/11/06 08:19:22;;;;;;;1.75;1.15;;;;;;;26.34;19.32;99342.59;5069892;28;20032;-87
2021/11/06 08:21:48;;;;;;;1.73;1.27;;;;;;;26.23;19.38;99341.91;5071200;28;20097;-90
2021/11/06 08:24:15;;;;;;;4.57;1.33;;;;;;;25.84;19.82;99354.31;5066882;28;20036;-87
2021/11/06 08:26:41;;;;;;;1.13;1.02;;;;;;;25.56;19.61;99348.91;5070101;28;20033;-90
2021/11/06 08:29:07;;;;;;;1.20;1.08;;;;;;;25.74;19.79;99348.78;5071317;28;20044;-90
2021/11/06 08:31:33;;;;;;;1.80;1.17;;;;;;;25.92;19.71;99350.22;5071852;28;20215;-89
2021/11/06 08:33:59;;;;;;;1.77;1.10;;;;;;;26.40;19.31;99352.97;5070707;28;20467;-89
2021/11/06 08:36:26;;;;;;;1.15;0.70;;;;;;;26.67;19.22;99353.06;5074423;28;20033;-89
2021/11/06 08:38:52;;;;;;;2.22;1.05;;;;;;;26.80;18.90;99347.69;5051955;28;20028;-89
2021/11/06 08:41:18;;;;;;;1.80;1.13;;;;;;;26.84;18.85;99356.91;5076813;28;20025;-89
2021/11/06 08:43:44;;;;;;;1.08;0.85;;;;;;;27.24;18.43;99356.72;5070354;28;20033;-89
2021/11/06 08:46:10;;;;;;;2.00;1.17;;;;;;;26.91;18.81;99359.63;5073061;28;20044;-89
2021/11/06 08:48:37;;;;;;;1.23;0.90;;;;;;;26.76;18.68;99355.41;5071794;28;20037;-89
2021/11/06 08:51:04;;;;;;;2.08;0.75;;;;;;;26.67;19.13;99367.16;5065026;28;20032;-89
2021/11/06 08:53:31;;;;;;;1.27;0.90;;;;;;;26.97;18.66;99363.56;5063448;28;20105;-90
2021/11/06 08:55:57;;;;;;;1.25;1.00;;;;;;;26.22;19.04;99363.63;5065193;28;20454;-89
2021/11/06 08:58:23;;;;;;;1.55;0.93;;;;;;;25.92;19.37;99367.13;5067071;28;20086;-89
2021/11/06 09:00:51;;;;;;;1.52;1.02;;;;;;;25.17;19.95;99362.44;5067427;28;20047;-90
2021/11/06 09:03:23;;;;;;;1.13;0.95;;;;;;;25.05;20.58;99374.13;5065543;28;20071;-89
2021/11/06 09:05:52;;;;;;;0.95;0.95;;;;;;;24.59;20.97;99368.69;5054319;28;20462;-89
2021/11/06 09:08:24;;;;;;;1.45;0.80;;;;;;;25.60;19.93;99372.19;5068289;28;20040;-90
2021/11/06 09:10:51;;;;;;;1.75;1.00;;;;;;;26.40;19.18;99363.44;5066767;28;20203;-89
2021/11/06 09:13:17;;;;;;;2.03;1.13;;;;;;;26.45;19.08;99363.78;5071537;28;20033;-90
2021/11/06 09:15:43;;;;;;;0.98;0.88;;;;;;;25.93;20.13;99370.69;5069015;28;20036;-90
2021/11/06 09:18:10;;;;;;;2.15;1.10;;;;;;;25.82;19.18;99373.63;5065853;28;20029;-91
2021/11/06 09:20:37;;;;;;;2.97;1.38;;;;;;;24.88;20.17;99375.03;5057067;28;20032;-91
2021/11/06 09:23:04;;;;;;;3.75;1.10;;;;;;;23.67;21.16;99368.81;5065649;28;20474;-90
2021/11/06 09:25:30;;;;;;;1.20;1.02;;;;;;;22.64;21.94;99375.34;5068559;28;20462;-91
2021/11/06 09:27:56;;;;;;;0.80;0.70;;;;;;;23.10;21.99;99367.13;5066389;28;20029;-90
2021/11/06 09:30:22;;;;;;;1.35;0.80;;;;;;;22.83;21.99;99374.22;5063829;28;20074;-92
2021/11/06 09:32:49;;;;;;;1.05;0.93;;;;;;;23.03;22.12;99370.72;5067171;28;20036;-90
2021/11/06 09:35:15;;;;;;;1.02;0.90;;;;;;;24.09;20.81;99370.81;5058600;28;20052;-85
2021/11/06 09:37:41;;;;;;;1.70;1.10;;;;;;;24.08;20.22;99371.22;5068026;28;20048;-84
2021/11/06 09:40:09;;;;;;;1.85;0.90;;;;;;;23.94;20.72;99378.41;5064153;28;20487;-85
2021/11/06 09:42:38;;;;;;;3.22;1.00;;;;;;;24.91;19.88;99363.78;5066796;28;20084;-85
2021/11/06 09:45:06;;;;;;;1.92;1.00;;;;;;;25.58;19.20;99363.38;5072495;28;20032;-85
2021/11/06 09:47:32;;;;;;;1.02;0.77;;;;;;;24.84;19.46;99361.00;5058126;28;20036;-83
2021/11/06 09:49:58;;;;;;;0.90;0.70;;;;;;;24.22;20.11;99376.81;5044068;28;20034;-89
2021/11/06 09:52:25;;;;;;;1.83;0.80;;;;;;;23.45;20.43;99367.22;5066639;28;20036;-89
2021/11/06 09:54:51;;;;;;;0.77;0.43;;;;;;;22.98;21.80;99375.88;5066005;28;20054;-89
2021/11/06 09:57:17;;;;;;;0.80;0.70;;;;;;;21.45;22.60;99364.88;5069916;28;20115;-89
2021/11/06 09:59:43;;;;;;;0.63;0.60;;;;;;;21.07;23.56;99368.13;5065625;28;20029;-89
2021/11/06 10:02:09;;;;;;;3.28;0.80;;;;;;;21.38;22.61;99361.25;5063592;28;20051;-88
2021/11/06 10:04:36;;;;;;;1.23;0.70;;;;;;;22.10;22.65;99359.44;5065257;28;20035;-87
2021/11/06 10:07:19;;;;;;;2.28;0.70;;;;;;;22.89;21.54;99347.44;5066703;28;20055;-90
2021/11/06 10:10:00;;;;;;;2.25;0.80;;;;;;;23.81;20.24;99356.78;5064096;28;20120;-87
2021/11/06 10:12:31;;;;;;;1.33;0.68;;;;;;;23.08;21.25;99347.88;5066128;28;20033;-87
2021/11/06 10:15:07;;;;;;;1.48;0.57;;;;;;;22.01;21.89;99351.38;5064972;28;20032;-87
2021/11/06 10:17:35;;;;;;;2.55;0.80;;;;;;;23.20;21.21;99344.72;5065280;28;20405;-87
2021/11/06 10:20:40;;;;;;;1.20;0.77;;;;;;;22.25;21.93;99354.72;5066211;28;20049;-87
2021/11/06 10:23:07;;;;;;;1.27;0.60;;;;;;;22.55;22.10;99342.09;5064020;28;20040;-85
2021/11/06 10:25:34;;;;;;;0.40;0.40;;;;;;;23.07;20.89;99339.88;5064145;28;20066;-87
2021/11/06 10:28:04;;;;;;;1.10;0.57;;;;;;;23.38;20.04;99332.78;5066170;28;20044;-86
2021/11/06 10:30:36;;;;;;;0.77;0.60;;;;;;;22.79;20.94;99321.03;5066564;28;20381;-86
2021/11/06 10:33:05;;;;;;;1.25;0.50;;;;;;;23.94;20.37;99335.56;5066621;28;20090;-86
2021/11/06 10:35:37;;;;;;;0.65;0.50;;;;;;;25.45;19.02;99327.72;5062121;28;20036;-87
2021/11/06 10:38:16;;;;;;;1.50;0.70;;;;;;;24.03;19.66;99322.72;5065277;28;20063;-88
2021/11/06 10:40:52;;;;;;;1.10;0.43;;;;;;;24.92;19.00;99305.56;5058835;28;20047;-88
2021/11/06 10:43:22;;;;;;;1.83;0.60;;;;;;;25.88;17.90;99306.47;5067935;28;20116;-87
2021/11/06 10:45:51;;;;;;;1.45;0.50;;;;;;;25.67;18.41;99301.81;5061406;28;20051;-87
2021/11/06 10:48:20;;;;;;;1.08;0.50;;;;;;;25.00;18.72;99299.50;5062236;28;20436;-87
2021/11/06 10:50:59;;;;;;;0.50;0.43;;;;;;;25.97;18.36;99299.13;5045711;28;20097;-88
2021/11/06 10:53:39;;;;;;;0.93;0.40;;;;;;;26.52;17.33;99300.91;5060641;28;20029;-89
2021/11/06 10:56:30;;;;;;;1.55;0.50;;;;;;;25.54;17.65;99297.91;5067694;28;20641;-88
2021/11/06 10:59:04;;;;;;;3.03;0.52;;;;;;;25.62;18.34;99307.91;5062048;28;20079;-87
2021/11/06 11:01:36;;;;;;;0.57;0.50;;;;;;;24.45;19.26;99304.97;5065812;28;20060;-90
2021/11/06 11:04:06;;;;;;;1.65;0.40;;;;;;;24.71;19.11;99287.56;5068501;28;20043;-87
2021/11/06 11:06:43;;;;;;;1.08;0.60;;;;;;;25.03;18.42;99284.63;5062364;28;20090;-91
2021/11/06 11:09:34;;;;;;;0.82;0.40;;;;;;;25.46;18.31;99295.59;5062213;28;20033;-91
2021/11/06 11:12:02;;;;;;;1.27;0.50;;;;;;;24.37;19.85;99297.78;5062298;28;20040;-89
2021/11/06 11:14:31;;;;;;;0.63;0.63;;;;;;;25.49;18.88;99289.09;5059147;28;20051;-89
2021/11/06 11:17:05;;;;;;;0.73;0.43;;;;;;;26.27;17.60;99287.16;5070054;28;20367;-91
2021/11/06 11:19:37;;;;;;;1.20;0.70;;;;;;;26.54;17.57;99281.56;5069441;28;20116;-88
2021/11/06 11:22:05;;;;;;;1.15;0.50;;;;;;;26.93;17.03;99279.06;5067383;28;20041;-90
2021/11/06 11:24:31;;;;;;;0.55;0.50;;;;;;;26.80;17.72;99280.06;5059233;28;20108;-86
2021/11/06 11:26:58;;;;;;;0.57;0.57;;;;;;;27.02;17.05;99279.34;5069874;28;20040;-85
2021/11/06 11:29:32;;;;;;;0.98;0.50;;;;;;;26.89;17.40;99277.50;5072786;28;20024;-83
2021/11/06 11:32:00;;;;;;;0.60;0.47;;;;;;;26.49;17.19;99273.63;5074568;28;20037;-85
2021/11/06 11:34:26;;;;;;;1.25;0.30;;;;;;;26.52;17.64;99275.56;5068629;28;20108;-88